createdAt,value
2018-08-31T00:02:29.486Z,101405.48
2018-08-31T00:06:11.012Z,101408.05
2018-08-31T00:09:18.819Z,101403.88
2018-08-31T00:12:00.673Z,101400.97
2018-08-31T00:14:30.379Z,101404.61
2018-08-31T00:17:00.197Z,101405.17
2018-08-31T00:19:29.864Z,101403.05
2018-08-31T00:21:59.567Z,101408.16
2018-08-31T00:24:40.072Z,101407.13
2018-08-31T00:27:21.055Z,101405.74
2018-08-31T00:31:10.188Z,101403.38
2018-08-31T00:33:58.453Z,101401.88
2018-08-31T00:37:47.468Z,101406.19
2018-08-31T00:42:36.038Z,101406.16
2018-08-31T00:45:17.933Z,101400.44
2018-08-31T00:47:47.642Z,101402.80
2018-08-31T00:50:17.284Z,101401.62
2018-08-31T00:52:47.077Z,101411.00
2018-08-31T00:55:16.959Z,101409.64
2018-08-31T00:57:46.672Z,101409.36
2018-08-31T01:00:16.641Z,101408.89
2018-08-31T01:02:46.747Z,101408.08
2018-08-31T01:05:16.898Z,101410.11
2018-08-31T01:07:46.769Z,101406.53
2018-08-31T01:10:18.242Z,101413.42
2018-08-31T01:12:47.969Z,101412.26
2018-08-31T01:15:17.592Z,101412.94
2018-08-31T01:17:47.352Z,101418.73
2018-08-31T01:20:17.074Z,101411.56
2018-08-31T01:22:46.668Z,101411.38
2018-08-31T01:25:16.585Z,101410.80
2018-08-31T01:27:47.109Z,101416.89
2018-08-31T01:30:16.917Z,101417.00
2018-08-31T01:32:46.574Z,101412.41
2018-08-31T01:35:16.336Z,101411.56
2018-08-31T01:37:46.056Z,101416.20
2018-08-31T01:40:16.072Z,101420.73
2018-08-31T01:42:45.832Z,101423.75
2018-08-31T01:45:15.592Z,101426.85
2018-08-31T01:47:45.316Z,101422.44
2018-08-31T01:50:15.122Z,101422.59
2018-08-31T01:52:45.028Z,101424.23
2018-08-31T01:55:14.887Z,101415.07
2018-08-31T01:57:44.037Z,101421.69
2018-08-31T02:00:12.904Z,101425.31
2018-08-31T02:02:42.631Z,101426.45
2018-08-31T02:05:11.372Z,101425.75
2018-08-31T02:07:40.495Z,101418.81
2018-08-31T02:10:09.598Z,101419.73
2018-08-31T02:12:38.855Z,101423.86
2018-08-31T02:15:08.120Z,101421.98
2018-08-31T02:17:37.403Z,101428.88
2018-08-31T02:20:06.675Z,101425.30
2018-08-31T02:22:36.199Z,101416.53
2018-08-31T02:25:05.505Z,101421.17
2018-08-31T02:27:37.471Z,101420.45
2018-08-31T02:30:06.983Z,101419.41
2018-08-31T02:32:36.072Z,101421.60
2018-08-31T02:35:05.147Z,101430.63
2018-08-31T02:37:34.160Z,101424.13
2018-08-31T02:40:03.557Z,101431.23
2018-08-31T02:42:32.428Z,101435.92
2018-08-31T02:45:01.541Z,101440.42
2018-08-31T02:47:37.198Z,101438.17
2018-08-31T02:50:06.075Z,101436.56
2018-08-31T02:52:35.178Z,101429.19
2018-08-31T02:55:04.270Z,101433.40
2018-08-31T02:57:33.444Z,101438.82
2018-08-31T03:00:02.459Z,101441.38
2018-08-31T03:02:31.520Z,101441.66
2018-08-31T03:05:00.661Z,101442.80
2018-08-31T03:07:29.956Z,101447.52
2018-08-31T03:09:59.040Z,101448.89
2018-08-31T03:12:28.209Z,101448.86
2018-08-31T03:14:57.015Z,101450.23
2018-08-31T03:17:25.934Z,101451.88
2018-08-31T03:19:54.818Z,101463.00
2018-08-31T03:22:23.705Z,101461.86
2018-08-31T03:24:52.600Z,101464.92
2018-08-31T03:27:21.463Z,101464.69
2018-08-31T03:29:50.797Z,101462.77
2018-08-31T03:32:19.688Z,101458.09
2018-08-31T03:34:48.571Z,101466.61
2018-08-31T03:37:17.518Z,101466.65
2018-08-31T03:39:46.350Z,101458.98
2018-08-31T03:42:15.445Z,101461.22
2018-08-31T03:44:44.542Z,101454.34
2018-08-31T03:47:13.432Z,101456.78
2018-08-31T03:49:42.308Z,101453.55
2018-08-31T03:52:11.216Z,101455.14
2018-08-31T03:54:40.176Z,101454.99
2018-08-31T03:57:09.585Z,101458.50
2018-08-31T03:59:38.487Z,101456.89
